Time;durP1;ratioP1;P1;durP2;ratioP2;P2;SDS_P1;SDS_P2;PMS_P1;PMS_P2;Temp;Humidity;BMP_temperature;BMP_pressure;BME280_temperature;BME280_humidity;BME280_pressure;Samples;Min_cycle;Max_cycle;Signal;HPM_P1;HPM_P2
2021/10/08 00:01:28;;;;;;;29.67;18.92;;;;;;;;;;5001211;28;20041;-73
2021/10/08 00:03:53;;;;;;;31.50;18.92;;;;;;;;;;4997050;28;20088;-74
2021/10/08 00:06:18;;;;;;;29.98;18.58;;;;;;;;;;5001087;28;20684;-73
2021/10/08 00:08:44;;;;;;;31.50;19.83;;;;;;;;;;4999424;28;20042;-73
2021/10/08 00:11:09;;;;;;;30.23;18.52;;;;;;;;;;4991461;28;20565;-73
2021/10/08 00:13:35;;;;;;;29.05;17.98;;;;;;;;;;4990866;28;20462;-74
2021/10/08 00:16:01;;;;;;;29.42;18.13;;;;;;;;;;4991705;28;20532;-73
2021/10/08 00:18:26;;;;;;;29.48;17.90;;;;;;;;;;4997539;28;20040;-73
2021/10/08 00:20:51;;;;;;;32.53;18.63;;;;;;;;;;4994911;28;20470;-74
2021/10/08 00:23:16;;;;;;;28.38;17.33;;;;;;;;;;5001534;28;20041;-72
2021/10/08 00:25:41;;;;;;;33.03;19.95;;;;;;;;;;4993676;28;20073;-73
2021/10/08 00:28:07;;;;;;;30.63;19.17;;;;;;;;;;5003952;28;20422;-73
2021/10/08 00:30:32;;;;;;;27.13;17.40;;;;;;;;;;5006422;28;20128;-73
2021/10/08 00:32:57;;;;;;;29.70;19.30;;;;;;;;;;5003708;28;20025;-73
2021/10/08 00:35:22;;;;;;;29.17;17.60;;;;;;;;;;5000469;28;20025;-73
2021/10/08 00:37:50;;;;;;;31.42;18.42;;;;;;;;;;4999857;28;20033;-73
2021/10/08 00:40:15;;;;;;;31.55;18.50;;;;;;;;;;5001156;28;20026;-73
2021/10/08 00:42:48;;;;;;;29.25;17.88;;;;;;;;;;4994891;28;20119;-72
2021/10/08 00:45:13;;;;;;;30.58;18.60;;;;;;;;;;5001938;28;20332;-72
2021/10/08 00:47:39;;;;;;;32.17;19.48;;;;;;;;;;4991887;28;20046;-74
2021/10/08 00:50:05;;;;;;;31.35;18.85;;;;;;;;;;4999650;28;20114;-73
2021/10/08 00:52:30;;;;;;;31.52;18.55;;;;;;;;;;4999426;28;20058;-73
2021/10/08 00:54:55;;;;;;;28.42;17.83;;;;;;;;;;4995236;28;20088;-73
2021/10/08 00:57:20;;;;;;;29.50;18.58;;;;;;;;;;4997316;28;20025;-73
2021/10/08 00:59:46;;;;;;;29.30;18.38;;;;;;;;;;5001969;28;20148;-73
2021/10/08 01:02:11;;;;;;;34.45;18.77;;;;;;;;;;5001319;28;20030;-72
2021/10/08 01:04:36;;;;;;;30.17;18.58;;;;;;;;;;5002534;28;20044;-72
2021/10/08 01:07:01;;;;;;;31.65;18.48;;;;;;;;;;5001683;28;20446;-72
2021/10/08 01:09:26;;;;;;;29.17;16.20;;;;;;;;;;4998513;28;20481;-72
2021/10/08 01:11:52;;;;;;;25.63;16.13;;;;;;;;;;5002980;28;20024;-71
2021/10/08 01:14:17;;;;;;;28.27;17.45;;;;;;;;;;5007245;28;20029;-72
2021/10/08 01:16:42;;;;;;;26.13;15.73;;;;;;;;;;4997489;28;20030;-72
2021/10/08 01:19:07;;;;;;;28.15;17.42;;;;;;;;;;4996803;28;20018;-72
2021/10/08 01:21:33;;;;;;;28.10;16.80;;;;;;;;;;4998128;28;20364;-72
2021/10/08 01:23:58;;;;;;;28.48;16.73;;;;;;;;;;4997012;28;20492;-71
2021/10/08 01:26:23;;;;;;;26.67;16.67;;;;;;;;;;4992999;28;20030;-71
2021/10/08 01:28:48;;;;;;;24.67;16.08;;;;;;;;;;4999141;28;20047;-72
2021/10/08 01:31:13;;;;;;;26.13;16.02;;;;;;;;;;5002097;28;20101;-72
2021/10/08 01:33:39;;;;;;;24.65;15.25;;;;;;;;;;4995711;28;20140;-72
2021/10/08 01:36:04;;;;;;;25.23;15.43;;;;;;;;;;4995281;28;20102;-72
2021/10/08 01:38:29;;;;;;;23.40;15.93;;;;;;;;;;4993923;28;20033;-72
2021/10/08 01:40:54;;;;;;;26.95;16.35;;;;;;;;;;4995323;28;20057;-71
2021/10/08 01:43:19;;;;;;;25.77;16.27;;;;;;;;;;5005781;28;20045;-71
2021/10/08 01:45:45;;;;;;;27.92;15.55;;;;;;;;;;4998698;28;20029;-72
2021/10/08 01:48:10;;;;;;;26.20;15.02;;;;;;;;;;4997918;28;20029;-72
2021/10/08 01:50:35;;;;;;;25.27;15.25;;;;;;;;;;4993938;28;20573;-72
2021/10/08 01:53:00;;;;;;;29.10;17.83;;;;;;;;;;5002969;28;20018;-73
2021/10/08 01:55:26;;;;;;;26.00;16.35;;;;;;;;;;5001369;28;20137;-71
2021/10/08 01:57:51;;;;;;;29.73;16.88;;;;;;;;;;4999993;28;20029;-72
2021/10/08 02:00:16;;;;;;;29.23;17.20;;;;;;;;;;4996930;28;20030;-71
2021/10/08 02:02:41;;;;;;;26.25;16.67;;;;;;;;;;5001932;28;20030;-72
2021/10/08 02:05:07;;;;;;;26.90;16.80;;;;;;;;;;4998821;28;20527;-71
2021/10/08 02:07:32;;;;;;;29.38;16.92;;;;;;;;;;5001453;28;20038;-71
2021/10/08 02:09:58;;;;;;;29.10;16.75;;;;;;;;;;5004381;28;20042;-70
2021/10/08 02:12:23;;;;;;;28.95;16.98;;;;;;;;;;5002382;28;20434;-70
2021/10/08 02:14:48;;;;;;;29.85;17.55;;;;;;;;;;5002715;28;20389;-71
2021/10/08 02:17:14;;;;;;;28.90;17.25;;;;;;;;;;4999956;28;20033;-71
2021/10/08 02:19:39;;;;;;;32.83;18.55;;;;;;;;;;4992806;28;20585;-71
2021/10/08 02:22:04;;;;;;;24.25;14.55;;;;;;;;;;4994737;28;20102;-71
2021/10/08 02:24:29;;;;;;;21.85;14.40;;;;;;;;;;5007736;28;20053;-71
2021/10/08 02:26:55;;;;;;;19.42;11.70;;;;;;;;;;5003231;28;20018;-70
2021/10/08 02:29:20;;;;;;;19.33;12.32;;;;;;;;;;5005213;28;20042;-70
2021/10/08 02:31:45;;;;;;;18.95;13.45;;;;;;;;;;5010945;28;20030;-71
2021/10/08 02:34:10;;;;;;;19.77;12.75;;;;;;;;;;5002205;28;20467;-71
2021/10/08 02:36:36;;;;;;;20.63;13.85;;;;;;;;;;5000777;28;20029;-70
2021/10/08 02:39:01;;;;;;;19.83;13.40;;;;;;;;;;5001395;28;20034;-70
2021/10/08 02:41:26;;;;;;;22.08;12.88;;;;;;;;;;4994024;28;20454;-70
2021/10/08 02:43:51;;;;;;;23.15;13.85;;;;;;;;;;4994364;28;20493;-70
2021/10/08 02:46:16;;;;;;;19.98;13.15;;;;;;;;;;5009928;28;20077;-72
2021/10/08 02:48:42;;;;;;;24.33;14.27;;;;;;;;;;4998278;28;20045;-72
2021/10/08 02:51:07;;;;;;;25.92;15.00;;;;;;;;;;5000463;28;20509;-72
2021/10/08 02:53:32;;;;;;;23.92;15.00;;;;;;;;;;5003822;28;20122;-72
2021/10/08 02:55:57;;;;;;;22.33;13.93;;;;;;;;;;5005289;28;20057;-72
2021/10/08 02:58:23;;;;;;;23.30;14.18;;;;;;;;;;4998054;28;20076;-72
2021/10/08 03:00:48;;;;;;;22.73;14.63;;;;;;;;;;5001989;28;20033;-71
2021/10/08 03:03:13;;;;;;;25.05;14.15;;;;;;;;;;4994730;28;20049;-71
2021/10/08 03:05:38;;;;;;;22.80;14.88;;;;;;;;;;4995236;28;20391;-71
2021/10/08 03:08:04;;;;;;;22.60;15.13;;;;;;;;;;4999892;28;20030;-71
2021/10/08 03:10:29;;;;;;;28.08;15.18;;;;;;;;;;4999558;28;20042;-71
2021/10/08 03:12:54;;;;;;;23.00;15.13;;;;;;;;;;5007402;28;20018;-70
2021/10/08 03:15:19;;;;;;;22.75;14.90;;;;;;;;;;5004096;28;20026;-71
2021/10/08 03:17:44;;;;;;;24.52;14.05;;;;;;;;;;5000762;28;20437;-72
2021/10/08 03:20:10;;;;;;;22.00;14.20;;;;;;;;;;5005935;28;20477;-70
2021/10/08 03:22:36;;;;;;;23.40;15.05;;;;;;;;;;5001528;28;20115;-71
2021/10/08 03:25:02;;;;;;;25.73;15.57;;;;;;;;;;4998674;28;20366;-72
2021/10/08 03:27:27;;;;;;;23.73;15.00;;;;;;;;;;4994713;28;20054;-71
2021/10/08 03:29:52;;;;;;;24.33;14.45;;;;;;;;;;4997873;28;20030;-70
2021/10/08 03:32:17;;;;;;;25.65;14.90;;;;;;;;;;5000456;28;20062;-71
2021/10/08 03:34:42;;;;;;;23.25;15.43;;;;;;;;;;4993615;28;20026;-72
2021/10/08 03:37:11;;;;;;;25.38;14.48;;;;;;;;;;4997782;28;20413;-71
2021/10/08 03:39:39;;;;;;;27.73;15.00;;;;;;;;;;5004241;28;20029;-72
2021/10/08 03:42:05;;;;;;;28.67;15.88;;;;;;;;;;5002021;28;20353;-70
2021/10/08 03:44:37;;;;;;;23.17;15.05;;;;;;;;;;5011239;28;20030;-73
2021/10/08 03:47:12;;;;;;;24.63;15.38;;;;;;;;;;4998187;28;20036;-71
2021/10/08 03:49:37;;;;;;;23.58;14.15;;;;;;;;;;4998950;28;20038;-72
2021/10/08 03:52:03;;;;;;;26.77;16.17;;;;;;;;;;5001705;28;20422;-71
2021/10/08 03:54:28;;;;;;;25.75;16.27;;;;;;;;;;4998710;28;20029;-71
2021/10/08 03:56:53;;;;;;;23.35;14.63;;;;;;;;;;4994571;28;20030;-72
2021/10/08 03:59:18;;;;;;;25.70;15.73;;;;;;;;;;5002202;28;20417;-72
2021/10/08 04:01:43;;;;;;;26.90;15.40;;;;;;;;;;5006411;28;20013;-71
2021/10/08 04:04:09;;;;;;;24.85;15.82;;;;;;;;;;5007802;28;20084;-71
2021/10/08 04:06:35;;;;;;;27.05;16.85;;;;;;;;;;4994975;28;20045;-72
2021/10/08 04:09:01;;;;;;;27.73;15.82;;;;;;;;;;4998884;28;20146;-70
2021/10/08 04:11:26;;;;;;;25.42;15.57;;;;;;;;;;5004599;28;20022;-72
2021/10/08 04:13:52;;;;;;;27.23;17.20;;;;;;;;;;4997834;28;20492;-69
2021/10/08 04:16:17;;;;;;;27.77;16.45;;;;;;;;;;4996646;28;20053;-69
2021/10/08 04:18:43;;;;;;;27.75;16.40;;;;;;;;;;4998779;28;20051;-70
2021/10/08 04:21:08;;;;;;;28.00;16.73;;;;;;;;;;5005542;28;20421;-71
2021/10/08 04:23:33;;;;;;;24.42;15.40;;;;;;;;;;5000573;28;20488;-72
2021/10/08 04:25:58;;;;;;;28.73;16.35;;;;;;;;;;5000971;28;20038;-71
2021/10/08 04:28:23;;;;;;;26.90;16.17;;;;;;;;;;5005791;28;20052;-71
2021/10/08 04:30:49;;;;;;;27.92;16.45;;;;;;;;;;5006809;28;20033;-72
2021/10/08 04:33:19;;;;;;;25.70;16.05;;;;;;;;;;4998406;28;20029;-70
2021/10/08 04:35:44;;;;;;;;;;;;;;;;;;4994075;28;20072;-71
2021/10/08 04:38:09;;;;;;;26.02;15.70;;;;;;;;;;5012762;28;19913;-71
2021/10/08 04:40:34;;;;;;;28.42;17.33;;;;;;;;;;4997444;28;20388;-72
2021/10/08 04:42:59;;;;;;;40.75;22.35;;;;;;;;;;5001378;28;20081;-71
2021/10/08 04:45:24;;;;;;;38.35;22.65;;;;;;;;;;4995935;28;20543;-71
2021/10/08 04:47:50;;;;;;;41.72;24.85;;;;;;;;;;4991424;28;20038;-74
2021/10/08 04:50:17;;;;;;;44.97;26.35;;;;;;;;;;4995033;28;20025;-71
2021/10/08 04:52:42;;;;;;;45.72;26.38;;;;;;;;;;5001621;28;20021;-72
2021/10/08 04:55:07;;;;;;;45.67;25.58;;;;;;;;;;5001926;28;20029;-70
2021/10/08 04:57:33;;;;;;;44.50;25.35;;;;;;;;;;5001797;28;20162;-72
2021/10/08 04:59:58;;;;;;;49.13;26.50;;;;;;;;;;4997640;28;20064;-71
2021/10/08 05:02:23;;;;;;;48.20;25.15;;;;;;;;;;5007394;28;20113;-71
2021/10/08 05:04:54;;;;;;;40.42;23.60;;;;;;;;;;5001821;28;20054;-60
2021/10/08 05:07:19;;;;;;;49.17;25.65;;;;;;;;;;4999490;28;20182;-60
2021/10/08 05:09:44;;;;;;;43.58;24.95;;;;;;;;;;4999208;28;20367;-61
2021/10/08 05:12:09;;;;;;;45.85;26.33;;;;;;;;;;5007530;28;20576;-61
2021/10/08 05:14:34;;;;;;;46.38;25.35;;;;;;;;;;5007755;28;20025;-61
2021/10/08 05:17:00;;;;;;;43.80;25.73;;;;;;;;;;4999491;28;20109;-61
2021/10/08 05:19:25;;;;;;;43.22;26.83;;;;;;;;;;4992711;28;20034;-61
2021/10/08 05:21:50;;;;;;;48.03;26.88;;;;;;;;;;4990782;28;20422;-62
2021/10/08 05:24:16;;;;;;;52.08;27.63;;;;;;;;;;4993365;28;20109;-61
2021/10/08 05:26:41;;;;;;;46.38;26.42;;;;;;;;;;4998208;28;20022;-62
2021/10/08 05:29:06;;;;;;;57.03;27.42;;;;;;;;;;4991577;28;20074;-60
2021/10/08 05:31:33;;;;;;;46.78;26.42;;;;;;;;;;4998069;28;20621;-61
2021/10/08 05:33:58;;;;;;;47.03;27.02;;;;;;;;;;4992974;28;20034;-61
2021/10/08 05:36:24;;;;;;;54.97;28.05;;;;;;;;;;4997484;28;20030;-61
2021/10/08 05:38:49;;;;;;;52.65;27.25;;;;;;;;;;4992716;28;20483;-60
2021/10/08 05:41:14;;;;;;;51.83;27.65;;;;;;;;;;4989966;28;20045;-60
2021/10/08 05:43:39;;;;;;;51.88;27.50;;;;;;;;;;4989844;28;20045;-60
2021/10/08 05:46:04;;;;;;;47.80;25.40;;;;;;;;;;4990924;28;20094;-61
2021/10/08 05:48:30;;;;;;;49.47;26.30;;;;;;;;;;5002088;28;20485;-61
2021/10/08 05:50:55;;;;;;;51.85;27.75;;;;;;;;;;5008719;28;20032;-61
2021/10/08 05:53:20;;;;;;;50.63;26.00;;;;;;;;;;5002924;28;20030;-61
2021/10/08 05:55:45;;;;;;;48.83;25.58;;;;;;;;;;5005940;28;20101;-60
2021/10/08 05:58:10;;;;;;;47.53;27.27;;;;;;;;;;4996519;28;20428;-61
2021/10/08 06:00:37;;;;;;;46.17;25.95;;;;;;;;;;4997748;28;20052;-60
2021/10/08 06:03:02;;;;;;;51.85;25.73;;;;;;;;;;5000698;28;20018;-61
2021/10/08 06:05:28;;;;;;;52.28;25.83;;;;;;;;;;4992431;28;20022;-61
2021/10/08 06:07:53;;;;;;;52.65;27.77;;;;;;;;;;4997904;28;20589;-61
2021/10/08 06:10:18;;;;;;;47.28;25.98;;;;;;;;;;4999775;28;20113;-61
2021/10/08 06:12:43;;;;;;;53.47;27.42;;;;;;;;;;4992795;28;20022;-60
2021/10/08 06:15:09;;;;;;;51.22;27.13;;;;;;;;;;4995218;28;20049;-60
2021/10/08 06:17:34;;;;;;;50.10;26.80;;;;;;;;;;4989529;28;20015;-61
2021/10/08 06:19:59;;;;;;;50.30;25.45;;;;;;;;;;4993480;28;20105;-61
2021/10/08 06:22:24;;;;;;;48.05;24.83;;;;;;;;;;4993556;28;20359;-60
2021/10/08 06:24:50;;;;;;;47.10;26.27;;;;;;;;;;4989600;28;20030;-60
2021/10/08 06:27:15;;;;;;;50.13;25.25;;;;;;;;;;4989457;28;20516;-61
2021/10/08 06:29:40;;;;;;;45.88;25.25;;;;;;;;;;4998293;28;20571;-61
2021/10/08 06:32:07;;;;;;;52.30;26.60;;;;;;;;;;4999560;28;20026;-61
2021/10/08 06:34:32;;;;;;;49.53;25.67;;;;;;;;;;4989071;28;20102;-61
2021/10/08 06:36:57;;;;;;;45.08;24.65;;;;;;;;;;4989306;28;20018;-61
2021/10/08 06:39:22;;;;;;;44.65;23.50;;;;;;;;;;4989250;28;20026;-61
2021/10/08 06:41:47;;;;;;;48.35;26.45;;;;;;;;;;4995514;28;20077;-61
2021/10/08 06:44:13;;;;;;;46.20;23.95;;;;;;;;;;4989246;28;20566;-60
2021/10/08 06:46:38;;;;;;;43.15;24.63;;;;;;;;;;4989912;28;20030;-61
2021/10/08 06:49:03;;;;;;;44.40;24.50;;;;;;;;;;5004453;28;20046;-60
2021/10/08 06:51:28;;;;;;;44.03;25.45;;;;;;;;;;4995782;28;20293;-61
2021/10/08 06:53:53;;;;;;;43.63;23.75;;;;;;;;;;4993204;28;20022;-60
2021/10/08 06:56:18;;;;;;;45.30;23.92;;;;;;;;;;4989593;28;20462;-62
2021/10/08 06:58:44;;;;;;;46.27;25.47;;;;;;;;;;5000611;28;20042;-61
2021/10/08 07:01:09;;;;;;;51.15;26.50;;;;;;;;;;5007291;28;20280;-61
2021/10/08 07:03:34;;;;;;;49.22;26.38;;;;;;;;;;4996833;28;20041;-61
2021/10/08 07:05:59;;;;;;;49.38;26.40;;;;;;;;;;5008238;28;20022;-62
2021/10/08 07:08:24;;;;;;;52.63;26.73;;;;;;;;;;5009167;28;20033;-61
2021/10/08 07:10:50;;;;;;;50.78;27.15;;;;;;;;;;5011616;28;20026;-62
2021/10/08 07:13:15;;;;;;;47.88;27.05;;;;;;;;;;5005549;28;20022;-62
2021/10/08 07:15:40;;;;;;;53.75;28.05;;;;;;;;;;5003528;28;20018;-61
2021/10/08 07:18:07;;;;;;;60.10;29.15;;;;;;;;;;5011637;28;20040;-62
2021/10/08 07:20:32;;;;;;;54.40;27.23;;;;;;;;;;5011545;28;20025;-61
2021/10/08 07:22:58;;;;;;;50.33;25.67;;;;;;;;;;5011824;28;20025;-61
2021/10/08 07:25:27;;;;;;;45.20;23.58;;;;;;;;;;4994743;28;20114;-61
2021/10/08 07:27:53;;;;;;;51.60;27.70;;;;;;;;;;4992712;28;20080;-62
2021/10/08 07:30:19;;;;;;;50.13;26.08;;;;;;;;;;4992456;28;20046;-61
2021/10/08 07:32:45;;;;;;;50.63;26.17;;;;;;;;;;4998512;28;20057;-61
2021/10/08 07:35:10;;;;;;;50.95;26.98;;;;;;;;;;4995387;28;20034;-61
2021/10/08 07:37:36;;;;;;;47.08;24.42;;;;;;;;;;4992306;28;20065;-61
2021/10/08 07:40:01;;;;;;;42.90;23.33;;;;;;;;;;4992449;28;20089;-60
2021/10/08 07:42:26;;;;;;;49.03;25.02;;;;;;;;;;4999834;28;20029;-61
2021/10/08 07:44:52;;;;;;;49.58;26.45;;;;;;;;;;5012132;28;20109;-61
2021/10/08 07:47:17;;;;;;;43.30;24.40;;;;;;;;;;4991759;28;20018;-61
2021/10/08 07:49:43;;;;;;;47.75;25.85;;;;;;;;;;4991873;28;20096;-61
2021/10/08 07:52:08;;;;;;;46.70;25.83;;;;;;;;;;4992190;28;20026;-62
2021/10/08 07:54:33;;;;;;;48.13;26.25;;;;;;;;;;4992187;28;20457;-62
2021/10/08 07:56:58;;;;;;;51.10;25.50;;;;;;;;;;4995525;28;20129;-60
2021/10/08 07:59:23;;;;;;;49.08;25.73;;;;;;;;;;4991938;28;20065;-60
2021/10/08 08:01:50;;;;;;;46.25;25.33;;;;;;;;;;4995839;28;20137;-61
2021/10/08 08:04:15;;;;;;;52.97;25.90;;;;;;;;;;4991547;28;20121;-62
2021/10/08 08:06:40;;;;;;;48.42;25.15;;;;;;;;;;4995137;28;20373;-61
2021/10/08 08:09:07;;;;;;;41.17;21.80;;;;;;;;;;4991503;28;20026;-61
2021/10/08 08:11:32;;;;;;;44.38;23.80;;;;;;;;;;4991617;28;20093;-61
2021/10/08 08:13:57;;;;;;;40.65;21.77;;;;;;;;;;5003239;28;20088;-61
2021/10/08 08:16:22;;;;;;;38.85;20.30;;;;;;;;;;4993820;28;20045;-60
2021/10/08 08:18:48;;;;;;;39.08;20.98;;;;;;;;;;4996030;28;20035;-61
2021/10/08 08:21:13;;;;;;;40.40;21.80;;;;;;;;;;4991577;28;20101;-60
2021/10/08 08:23:39;;;;;;;37.17;20.25;;;;;;;;;;4991389;28;20439;-60
2021/10/08 08:26:04;;;;;;;35.65;20.17;;;;;;;;;;4991478;28;20033;-61
2021/10/08 08:28:29;;;;;;;43.15;21.10;;;;;;;;;;4997080;28;20034;-61
2021/10/08 08:30:55;;;;;;;38.08;21.23;;;;;;;;;;5010311;28;20022;-60
2021/10/08 08:33:20;;;;;;;44.10;22.95;;;;;;;;;;4991105;28;20023;-61
2021/10/08 08:35:45;;;;;;;40.40;21.88;;;;;;;;;;4990856;28;20031;-60
2021/10/08 08:38:11;;;;;;;42.97;22.15;;;;;;;;;;4996946;28;20068;-61
2021/10/08 08:40:36;;;;;;;43.35;22.80;;;;;;;;;;4992873;28;20027;-61
2021/10/08 08:43:02;;;;;;;51.03;22.58;;;;;;;;;;4994497;28;20057;-61
2021/10/08 08:45:27;;;;;;;42.88;21.50;;;;;;;;;;4990922;28;20395;-61
2021/10/08 08:48:02;;;;;;;40.72;21.13;;;;;;;;;;5006251;28;20334;-61
2021/10/08 08:50:28;;;;;;;45.55;23.23;;;;;;;;;;4994932;28;20030;-61
2021/10/08 08:52:53;;;;;;;40.60;22.08;;;;;;;;;;4992535;28;20058;-60
2021/10/08 08:55:19;;;;;;;41.67;22.63;;;;;;;;;;4991150;28;20045;-61
2021/10/08 08:57:44;;;;;;;46.28;23.00;;;;;;;;;;4993247;28;20026;-61
2021/10/08 09:00:12;;;;;;;46.95;23.08;;;;;;;;;;5000431;28;20058;-61
2021/10/08 09:02:39;;;;;;;41.17;22.00;;;;;;;;;;5005811;28;20057;-61
2021/10/08 09:05:05;;;;;;;46.25;23.83;;;;;;;;;;5009302;28;20038;-61
2021/10/08 09:07:31;;;;;;;46.03;24.05;;;;;;;;;;5009453;28;20025;-61
2021/10/08 09:10:08;;;;;;;48.97;25.55;;;;;;;;;;5009532;28;20541;-60
2021/10/08 09:12:33;;;;;;;53.65;26.65;;;;;;;;;;4993166;28;20379;-60
2021/10/08 09:14:59;;;;;;;46.00;25.63;;;;;;;;;;4992435;28;20022;-60
2021/10/08 09:17:24;;;;;;;48.47;25.00;;;;;;;;;;5008712;28;20065;-61
2021/10/08 09:20:04;;;;;;;42.88;22.67;;;;;;;;;;5009453;28;20030;-60
2021/10/08 09:22:32;;;;;;;41.47;21.95;;;;;;;;;;5001862;28;20065;-62
2021/10/08 09:25:20;;;;;;;41.72;21.05;;;;;;;;;;5009306;28;20029;-61
2021/10/08 09:27:47;;;;;;;34.90;19.23;;;;;;;;;;5007013;28;20061;-61
2021/10/08 09:30:13;;;;;;;43.67;21.52;;;;;;;;;;5005197;28;21016;-60
2021/10/08 09:32:42;;;;;;;48.10;21.55;;;;;;;;;;5005865;28;20022;-61
2021/10/08 09:35:09;;;;;;;41.60;19.63;;;;;;;;;;5006923;28;20045;-62
2021/10/08 09:37:35;;;;;;;37.08;19.17;;;;;;;;;;5006594;28;20308;-60
2021/10/08 09:40:00;;;;;;;36.97;18.55;;;;;;;;;;5006932;28;20036;-60
2021/10/08 09:42:33;;;;;;;31.92;17.80;;;;;;;;;;5006208;28;20022;-61
2021/10/08 09:44:58;;;;;;;32.78;17.42;;;;;;;;;;5006444;28;20081;-61
2021/10/08 09:47:26;;;;;;;29.92;15.52;;;;;;;;;;5006614;28;20385;-60
2021/10/08 09:49:52;;;;;;;28.65;16.65;;;;;;;;;;5006646;28;20034;-61
2021/10/08 09:52:21;;;;;;;28.20;15.68;;;;;;;;;;5006610;28;20040;-61
2021/10/08 09:54:50;;;;;;;23.15;13.82;;;;;;;;;;5005137;28;20025;-61
2021/10/08 09:57:15;;;;;;;22.00;12.93;;;;;;;;;;5005580;28;20537;-60
2021/10/08 09:59:40;;;;;;;17.70;11.52;;;;;;;;;;5005826;28;20137;-62
2021/10/08 10:02:05;;;;;;;18.85;11.90;;;;;;;;;;5007612;28;20101;-61
2021/10/08 10:04:44;;;;;;;20.48;12.52;;;;;;;;;;4998683;28;20038;-61
2021/10/08 10:07:10;;;;;;;21.13;13.02;;;;;;;;;;4989784;28;20331;-61
2021/10/08 10:09:36;;;;;;;19.42;12.00;;;;;;;;;;4989236;28;20038;-61
2021/10/08 10:12:02;;;;;;;18.58;12.30;;;;;;;;;;4989636;28;20026;-62
2021/10/08 10:14:27;;;;;;;19.92;11.55;;;;;;;;;;4997177;28;20070;-62
2021/10/08 10:16:53;;;;;;;19.77;12.40;;;;;;;;;;5002612;28;20041;-61
2021/10/08 10:19:18;;;;;;;15.57;11.15;;;;;;;;;;4995333;28;20026;-61
2021/10/08 10:21:43;;;;;;;18.80;12.27;;;;;;;;;;4998770;28;20485;-62
2021/10/08 10:24:09;;;;;;;17.35;12.00;;;;;;;;;;5004356;28;20033;-61
2021/10/08 10:26:34;;;;;;;15.25;10.60;;;;;;;;;;5001866;28;20044;-62
2021/10/08 10:28:59;;;;;;;17.75;11.65;;;;;;;;;;4999081;28;20041;-61
2021/10/08 10:31:25;;;;;;;19.08;13.65;;;;;;;;;;5001953;28;20045;-61
2021/10/08 10:33:54;;;;;;;18.73;13.50;;;;;;;;;;5001623;28;20436;-61
2021/10/08 10:36:24;;;;;;;18.23;13.18;;;;;;;;;;5003198;28;20116;-61
2021/10/08 10:38:49;;;;;;;21.27;13.43;;;;;;;;;;5001384;28;20037;-61
2021/10/08 10:41:14;;;;;;;18.20;13.25;;;;;;;;;;5002483;28;20458;-61
2021/10/08 10:43:45;;;;;;;18.45;13.30;;;;;;;;;;5001321;28;20100;-60
2021/10/08 10:51:58;;;;;;;18.42;11.82;;;;;;;;;;5005675;28;20026;-62
2021/10/08 10:54:39;;;;;;;14.07;11.02;;;;;;;;;;5008671;28;20018;-61
2021/10/08 10:57:05;;;;;;;15.15;10.65;;;;;;;;;;5006204;28;20064;-61
2021/10/08 10:59:31;;;;;;;14.68;11.18;;;;;;;;;;5009862;28;20045;-61
2021/10/08 11:02:03;;;;;;;16.27;11.65;;;;;;;;;;5001763;28;20080;-60
2021/10/08 11:04:28;;;;;;;14.32;10.65;;;;;;;;;;4998866;28;20037;-62
2021/10/08 11:07:02;;;;;;;18.17;12.85;;;;;;;;;;4994138;28;20022;-61
2021/10/08 11:09:27;;;;;;;18.30;12.43;;;;;;;;;;5005427;28;20057;-61
2021/10/08 11:12:11;;;;;;;17.98;12.23;;;;;;;;;;5011436;28;20088;-61
2021/10/08 11:14:36;;;;;;;19.42;12.35;;;;;;;;;;5011572;28;20014;-61
2021/10/08 11:17:21;;;;;;;17.83;12.43;;;;;;;;;;5008519;28;20536;-61
2021/10/08 11:19:47;;;;;;;18.50;13.25;;;;;;;;;;5005729;28;20064;-62
2021/10/08 11:22:12;;;;;;;18.08;13.15;;;;;;;;;;4995729;28;20014;-61
2021/10/08 11:24:38;;;;;;;19.05;12.40;;;;;;;;;;5007304;28;20026;-62
2021/10/08 11:27:05;;;;;;;16.90;11.88;;;;;;;;;;5011308;28;20033;-61
2021/10/08 11:29:31;;;;;;;15.65;10.98;;;;;;;;;;5010439;28;20116;-60
2021/10/08 11:32:01;;;;;;;15.48;10.85;;;;;;;;;;5003302;28;20025;-61
2021/10/08 11:34:26;;;;;;;14.15;10.25;;;;;;;;;;4997633;28;20505;-60
2021/10/08 11:36:56;;;;;;;14.13;10.82;;;;;;;;;;4994989;28;20173;-62
2021/10/08 11:39:21;;;;;;;14.52;10.65;;;;;;;;;;4996034;28;20420;-60
2021/10/08 11:42:03;;;;;;;16.63;11.00;;;;;;;;;;4991928;28;20110;-61
2021/10/08 11:44:32;;;;;;;15.65;11.35;;;;;;;;;;4992097;28;20029;-61
2021/10/08 11:47:03;;;;;;;15.48;10.55;;;;;;;;;;5007947;28;20894;-61
2021/10/08 11:51:58;;;;;;;19.30;12.70;;;;;;;;;;5007541;28;20109;-60
2021/10/08 11:54:23;;;;;;;18.20;12.45;;;;;;;;;;4991498;28;20126;-61
2021/10/08 11:56:59;;;;;;;18.83;12.10;;;;;;;;;;4991486;28;20018;-60
2021/10/08 11:59:25;;;;;;;17.50;12.07;;;;;;;;;;5001007;28;20053;-61
2021/10/08 12:02:05;;;;;;;14.82;10.98;;;;;;;;;;5007856;28;20028;-62
2021/10/08 12:04:30;;;;;;;18.23;13.13;;;;;;;;;;4993807;28;20111;-61
2021/10/08 12:07:04;;;;;;;17.40;12.10;;;;;;;;;;4994070;28;20065;-60
2021/10/08 12:09:29;;;;;;;16.92;12.18;;;;;;;;;;4999366;28;20487;-61
2021/10/08 12:11:54;;;;;;;18.13;11.93;;;;;;;;;;4995389;28;20153;-61
2021/10/08 12:14:20;;;;;;;18.77;12.82;;;;;;;;;;5006704;28;20049;-63
2021/10/08 12:16:46;;;;;;;18.50;12.10;;;;;;;;;;5001318;28;20496;-61
2021/10/08 12:19:12;;;;;;;17.55;12.18;;;;;;;;;;4998259;28;20124;-60
2021/10/08 12:21:39;;;;;;;18.58;13.30;;;;;;;;;;4995186;28;20069;-60
2021/10/08 12:24:04;;;;;;;19.88;13.60;;;;;;;;;;4997169;28;20030;-61
2021/10/08 12:26:31;;;;;;;21.85;15.05;;;;;;;;;;4995584;28;20081;-60
2021/10/08 12:28:57;;;;;;;20.70;13.95;;;;;;;;;;5002183;28;20033;-61
2021/10/08 12:31:42;;;;;;;20.67;13.63;;;;;;;;;;4995054;28;20044;-61
2021/10/08 12:34:07;;;;;;;21.65;14.15;;;;;;;;;;4994997;28;20019;-61
2021/10/08 12:36:32;;;;;;;18.52;13.25;;;;;;;;;;5000698;28;20052;-60
2021/10/08 12:38:58;;;;;;;18.75;13.35;;;;;;;;;;5000383;28;20987;-61
2021/10/08 12:41:27;;;;;;;19.63;14.50;;;;;;;;;;5001657;28;20079;-60
2021/10/08 12:44:02;;;;;;;19.55;13.82;;;;;;;;;;5008965;28;20105;-60
2021/10/08 12:46:34;;;;;;;20.52;14.35;;;;;;;;;;5002921;28;20096;-60
2021/10/08 12:48:59;;;;;;;19.08;13.50;;;;;;;;;;4991391;28;20087;-59
2021/10/08 12:51:25;;;;;;;17.13;13.18;;;;;;;;;;4996645;28;20057;-60
2021/10/08 12:54:08;;;;;;;19.98;13.05;;;;;;;;;;4992279;28;20022;-60
2021/10/08 12:56:34;;;;;;;20.50;13.50;;;;;;;;;;5005232;28;20595;-60
2021/10/08 12:58:59;;;;;;;19.90;13.80;;;;;;;;;;4992937;28;20112;-62
2021/10/08 13:01:24;;;;;;;16.17;11.57;;;;;;;;;;4992806;28;20030;-60
2021/10/08 13:03:50;;;;;;;17.20;11.80;;;;;;;;;;4991297;28;20462;-59
2021/10/08 13:06:20;;;;;;;17.98;11.38;;;;;;;;;;4994694;28;20034;-60
2021/10/08 13:09:05;;;;;;;17.67;12.23;;;;;;;;;;4993699;28;20084;-61
2021/10/08 13:11:38;;;;;;;19.42;11.88;;;;;;;;;;4994978;28;20112;-61
2021/10/08 13:14:03;;;;;;;17.88;12.32;;;;;;;;;;5003299;28;20028;-63
2021/10/08 13:16:29;;;;;;;19.25;11.93;;;;;;;;;;4996129;28;20113;-60
2021/10/08 13:18:55;;;;;;;20.20;12.30;;;;;;;;;;4996481;28;20034;-62
2021/10/08 13:21:20;;;;;;;19.63;12.45;;;;;;;;;;4989896;28;20386;-61
2021/10/08 13:23:47;;;;;;;16.08;11.48;;;;;;;;;;4995361;28;20026;-60
2021/10/08 13:26:12;;;;;;;16.02;10.95;;;;;;;;;;5006882;28;20508;-61
2021/10/08 13:28:37;;;;;;;15.95;11.50;;;;;;;;;;4999150;28;20038;-60
2021/10/08 13:31:03;;;;;;;17.42;11.80;;;;;;;;;;4990101;28;20802;-60
2021/10/08 13:33:28;;;;;;;19.65;13.90;;;;;;;;;;4993842;28;20069;-59
2021/10/08 13:35:57;;;;;;;18.55;13.23;;;;;;;;;;4992077;28;20029;-60
2021/10/08 13:38:23;;;;;;;18.77;12.90;;;;;;;;;;4994405;28;20018;-60
2021/10/08 13:40:49;;;;;;;18.42;13.60;;;;;;;;;;4994747;28;20406;-59
2021/10/08 13:43:14;;;;;;;21.15;13.52;;;;;;;;;;4989924;28;20034;-59
2021/10/08 13:45:40;;;;;;;22.48;15.30;;;;;;;;;;4989705;28;20026;-60
2021/10/08 13:48:05;;;;;;;22.67;13.43;;;;;;;;;;5008789;28;20014;-60
2021/10/08 13:50:31;;;;;;;20.23;13.38;;;;;;;;;;5008291;28;20042;-61
2021/10/08 13:52:57;;;;;;;18.33;13.55;;;;;;;;;;5008465;28;20014;-61
2021/10/08 13:55:22;;;;;;;22.40;14.38;;;;;;;;;;4990724;28;20072;-60
2021/10/08 13:57:47;;;;;;;22.00;15.10;;;;;;;;;;4990051;28;20406;-60
2021/10/08 14:00:12;;;;;;;21.88;15.02;;;;;;;;;;4989182;28;20054;-61
2021/10/08 14:10:16;;;;;;;20.60;14.65;;;;;;;;;;4989781;28;20046;-60
2021/10/08 14:12:42;;;;;;;19.80;13.45;;;;;;;;;;4998011;28;20404;-59
2021/10/08 14:15:07;;;;;;;19.15;13.20;;;;;;;;;;5005067;28;20033;-60
2021/10/08 14:17:32;;;;;;;17.17;12.18;;;;;;;;;;5003254;28;20037;-62
2021/10/08 14:19:58;;;;;;;18.70;12.90;;;;;;;;;;4996394;28;20022;-60
2021/10/08 14:22:23;;;;;;;18.30;13.38;;;;;;;;;;4998668;28;20022;-60
2021/10/08 14:24:48;;;;;;;21.42;13.85;;;;;;;;;;4993893;28;20038;-61
2021/10/08 14:27:14;;;;;;;17.23;12.25;;;;;;;;;;4998918;28;20458;-60
2021/10/08 14:29:39;;;;;;;19.60;13.52;;;;;;;;;;5003665;28;20037;-61